RJSF/FKS METAR and TAF weather

Enter ICAO airport designator
Station Type Date Time Source
RJSF METAR 2019/12/07 05:00 UTC NOAA

RJSF 070500Z VRB02KT 9999 FEW020 BKN050 BKN180 04/M02 Q1020


Station Type Date Time Source
RJSF Decoded METAR 2019/12/07 05:00 UTC NOAA

Fukushima Airport, Japan (RJSF) 37-14N 140-26E 375M
Dec 07, 2019 - 12:00 AM EST / 2019.12.07 0500 UTC
Wind: Variable at 2 MPH (2 KT):0
Visibility: greater than 7 mile(s):0
Sky conditions: mostly cloudy
Temperature: 39 F (4 C)
Dew Point: 28 F (-2 C)
Relative Humidity: 64%
Pressure (altimeter): 30.12 in. Hg (1020 hPa)
ob: RJSF 070500Z VRB02KT 9999 FEW020 BKN050 BKN180 04/M02 Q1020
cycle: 5

Station Type Date Time Source
RJSF TAF 2019/12/06 18:29 UTC NOAA

TAF RJSF 061706Z 0618/0800 34005KT 9999 FEW020 SCT040
BECMG 0703/0705 16004KT
BECMG 0715/0718 36008KT

Example: see airport list